Time;durP1;ratioP1;P1;durP2;ratioP2;P2;SDS_P1;SDS_P2;PMS_P1;PMS_P2;Temp;Humidity;BMP_temperature;BMP_pressure;BME280_temperature;BME280_humidity;BME280_pressure;Samples;Min_cycle;Max_cycle;Signal;HPM_P1;HPM_P2
2023/01/18 00:01:42;;;;;;;40.10;24.50;;;;;;;0.99;91.42;98326.53;107397;1254;99904;-55
2023/01/18 00:04:20;;;;;;;36.40;24.20;;;;;;;0.95;91.33;98327.61;107443;1254;88652;-55
2023/01/18 00:06:57;;;;;;;37.70;24.90;;;;;;;0.94;91.44;98328.82;107435;1254;96241;-54
2023/01/18 00:09:45;;;;;;;40.50;25.20;;;;;;;0.97;91.36;98327.29;107345;1254;81626;-54
2023/01/18 00:12:24;;;;;;;42.60;24.50;;;;;;;0.99;91.32;98322.56;107366;1254;83284;-53
2023/01/18 00:15:00;;;;;;;39.90;24.40;;;;;;;0.95;91.36;98323.16;107397;1258;98550;-53
2023/01/18 00:17:46;;;;;;;38.60;24.80;;;;;;;0.91;91.26;98325.25;107358;1254;87584;-52
2023/01/18 00:20:28;;;;;;;40.40;25.50;;;;;;;0.88;91.15;98323.48;107360;1254;94442;-52
2023/01/18 00:23:09;;;;;;;36.60;24.10;;;;;;;0.81;91.14;98325.37;107308;1254;80535;-53
2023/01/18 00:25:53;;;;;;;41.80;25.60;;;;;;;0.74;90.95;98323.03;107373;1254;82332;-54
2023/01/18 00:28:34;;;;;;;42.40;25.50;;;;;;;0.68;90.89;98323.55;107358;1254;98186;-55
2023/01/18 00:31:21;;;;;;;44.50;27.10;;;;;;;0.63;90.91;98321.41;107396;1258;88237;-52
2023/01/18 00:33:59;;;;;;;40.70;25.40;;;;;;;0.62;91.09;98311.63;107240;1256;97536;-52
2023/01/18 00:36:36;;;;;;;42.70;25.10;;;;;;;0.60;91.16;98307.73;107406;1254;79818;-52
2023/01/18 00:39:15;;;;;;;41.90;27.00;;;;;;;0.62;91.20;98307.91;107444;1254;81378;-52
2023/01/18 00:44:49;;;;;;;41.10;25.90;;;;;;;0.69;91.07;98304.11;107402;1258;88876;-54
2023/01/18 00:47:29;;;;;;;46.70;27.10;;;;;;;0.69;91.16;98302.30;107470;1254;93718;-53
2023/01/18 00:50:11;;;;;;;40.50;26.40;;;;;;;0.76;91.42;98297.77;107424;1258;81488;-51
2023/01/18 00:52:56;;;;;;;45.10;28.40;;;;;;;0.85;91.62;98296.00;107437;1254;81846;-52
2023/01/18 00:55:40;;;;;;;50.30;29.70;;;;;;;0.96;91.66;98294.14;107429;1254;98165;-53
2023/01/18 00:58:22;;;;;;;51.70;30.30;;;;;;;1.04;91.76;98288.41;107446;1254;88767;-53
2023/01/18 01:01:08;;;;;;;45.00;29.20;;;;;;;1.12;91.73;98282.95;107404;1254;93658;-52
2023/01/18 01:06:46;;;;;;;49.60;29.90;;;;;;;1.24;91.96;98267.16;107195;1254;82291;-52
2023/01/18 01:09:28;;;;;;;47.60;29.40;;;;;;;1.27;91.83;98268.11;107350;1254;100157;-52
2023/01/18 01:27:01;;;;;;;43.30;26.50;;;;;;;1.55;92.08;98252.27;107388;1258;88832;-53
2023/01/18 01:29:44;;;;;;;40.50;26.50;;;;;;;1.62;92.03;98246.21;107362;1254;95406;-55
2023/01/18 01:32:28;;;;;;;43.60;28.30;;;;;;;1.63;92.18;98245.12;107429;1254;79870;-56
2023/01/18 01:35:11;;;;;;;45.60;29.20;;;;;;;1.65;92.33;98254.08;107461;1254;82480;-52
2023/01/18 01:37:48;;;;;;;41.40;27.60;;;;;;;1.63;92.36;98248.92;107446;1254;99763;-52
2023/01/18 01:40:28;;;;;;;45.40;28.20;;;;;;;1.64;92.35;98243.49;107483;1254;87540;-53
2023/01/18 01:43:10;;;;;;;42.40;25.40;;;;;;;1.70;92.34;98238.48;107387;1254;93470;-53
2023/01/18 01:45:55;;;;;;;43.40;26.70;;;;;;;1.68;92.44;98244.52;107433;1254;81849;-52
2023/01/18 01:48:38;;;;;;;44.60;26.30;;;;;;;1.71;92.27;98246.38;107425;1254;81912;-53
2023/01/18 01:51:35;;;;;;;44.20;28.20;;;;;;;1.68;92.32;98246.91;107377;1254;100487;-53
2023/01/18 01:54:31;;;;;;;41.50;25.80;;;;;;;1.69;92.22;98246.98;107369;1254;87932;-53
2023/01/18 01:57:21;;;;;;;46.20;29.10;;;;;;;1.75;92.22;98251.61;107345;1254;94755;-54
2023/01/18 02:00:02;;;;;;;50.40;31.00;;;;;;;1.75;92.38;98251.37;107334;1254;79563;-53
2023/01/18 02:02:44;;;;;;;48.60;31.70;;;;;;;1.78;92.27;98244.45;107396;1254;81823;-53
2023/01/18 02:05:25;;;;;;;51.50;32.70;;;;;;;1.81;92.37;98239.23;107376;1254;98214;-54
2023/01/18 02:08:10;;;;;;;53.50;34.20;;;;;;;1.72;92.39;98239.66;107406;1254;87799;-55
2023/01/18 02:10:53;;;;;;;56.30;33.80;;;;;;;1.74;92.28;98240.58;107399;1258;95267;-53
2023/01/18 02:13:33;;;;;;;52.30;33.00;;;;;;;1.79;92.36;98241.14;107393;1254;79748;-53
2023/01/18 02:16:25;;;;;;;52.30;32.30;;;;;;;1.78;92.27;98246.21;107394;1254;82876;-53
2023/01/18 02:19:16;;;;;;;51.90;33.10;;;;;;;1.77;92.17;98253.73;107412;1254;98103;-52
2023/01/18 02:22:07;;;;;;;55.10;32.90;;;;;;;1.83;92.29;98250.34;107442;1254;86708;-54
2023/01/18 02:25:32;;;;;;;51.70;33.70;;;;;;;1.86;92.15;98244.91;107475;1254;95015;-51
2023/01/18 02:28:19;;;;;;;54.80;34.80;;;;;;;1.90;92.29;98247.61;107408;1258;80610;-52
2023/01/18 02:31:10;;;;;;;49.50;31.70;;;;;;;1.91;92.14;98254.66;107395;1254;79805;-55
2023/01/18 02:34:03;;;;;;;48.50;30.80;;;;;;;1.82;92.06;98248.29;107393;1254;100079;-54
2023/01/18 02:36:57;;;;;;;49.40;30.50;;;;;;;1.80;92.12;98249.02;107353;1254;88605;-52
2023/01/18 02:39:52;;;;;;;46.90;31.20;;;;;;;1.80;92.23;98246.06;107346;1258;93200;-55
2023/01/18 02:48:33;;;;;;;42.70;27.20;;;;;;;1.81;92.35;98251.96;107406;1254;97846;-53
2023/01/18 02:51:13;;;;;;;43.10;27.30;;;;;;;1.77;92.22;98244.52;107416;1255;90283;-53
2023/01/18 02:53:51;;;;;;;38.60;23.60;;;;;;;1.79;92.39;98244.91;107420;1254;93074;-53
2023/01/18 02:56:32;;;;;;;41.70;25.60;;;;;;;1.74;92.49;98248.00;107351;1254;80393;-52
2023/01/18 02:59:13;;;;;;;42.30;26.00;;;;;;;1.72;92.44;98248.34;107407;1254;82443;-52
2023/01/18 03:01:57;;;;;;;38.80;25.20;;;;;;;1.77;92.50;98244.09;107430;1254;98287;-53
2023/01/18 03:04:43;;;;;;;38.70;24.30;;;;;;;1.76;92.70;98239.20;107384;1254;88181;-53
2023/01/18 03:07:29;;;;;;;38.40;24.40;;;;;;;1.81;92.57;98235.59;107421;1254;94769;-54
2023/01/18 03:10:14;;;;;;;38.90;24.20;;;;;;;1.87;92.57;98234.17;107381;1254;79551;-52
2023/01/18 03:13:01;;;;;;;34.80;23.20;;;;;;;1.87;92.73;98232.91;107393;1254;81725;-51
2023/01/18 03:15:51;;;;;;;38.20;23.40;;;;;;;1.84;92.65;98228.46;107368;1254;98771;-53
2023/01/18 03:18:58;;;;;;;33.00;21.90;;;;;;;1.84;92.69;98224.11;107395;1254;87589;-54
2023/01/18 03:21:44;;;;;;;34.90;21.40;;;;;;;1.86;92.58;98219.18;107315;1254;94326;-55
2023/01/18 03:24:40;;;;;;;34.90;21.20;;;;;;;1.86;92.73;98218.69;107390;1254;81423;-55
2023/01/18 03:36:15;;;;;;;34.60;22.30;;;;;;;1.85;92.70;98193.00;107364;1254;95302;-54
2023/01/18 03:39:04;;;;;;;32.60;19.80;;;;;;;1.87;92.71;98186.95;107356;1254;81315;-55
2023/01/18 03:41:52;;;;;;;35.50;21.70;;;;;;;1.89;92.60;98176.38;107378;1254;82283;-54
2023/01/18 03:44:38;;;;;;;40.40;26.00;;;;;;;1.88;92.73;98167.29;107386;1254;99773;-54
2023/01/18 03:47:19;;;;;;;57.00;33.20;;;;;;;1.92;92.44;98162.15;107426;1254;87579;-55
2023/01/18 03:50:05;;;;;;;63.70;35.60;;;;;;;1.94;92.58;98156.95;107410;1254;95743;-54
2023/01/18 03:52:43;;;;;;;58.00;33.40;;;;;;;1.93;92.68;98148.21;107470;1254;80543;-54
2023/01/18 03:55:31;;;;;;;47.50;27.50;;;;;;;1.91;92.68;98142.58;107451;1254;82674;-51
2023/01/18 03:58:12;;;;;;;37.10;22.70;;;;;;;1.93;92.57;98133.55;107421;1254;97872;-51
2023/01/18 04:00:59;;;;;;;35.30;21.30;;;;;;;1.93;92.50;98129.94;107404;1255;87349;-52
2023/01/18 04:03:44;;;;;;;36.50;21.70;;;;;;;1.90;92.59;98124.88;107355;1254;95083;-51
2023/01/18 04:06:34;;;;;;;35.40;21.30;;;;;;;1.88;92.83;98114.95;107424;1254;81511;-52
2023/01/18 04:09:15;;;;;;;35.20;20.50;;;;;;;1.90;92.72;98112.98;107432;1254;82774;-52
2023/01/18 04:11:54;;;;;;;35.90;21.70;;;;;;;1.88;92.79;98101.54;107381;1254;99893;-51
2023/01/18 04:14:30;;;;;;;37.70;22.40;;;;;;;1.88;92.61;98093.31;107397;1258;86707;-51
2023/01/18 04:17:12;;;;;;;37.70;23.60;;;;;;;1.92;92.78;98090.48;107347;1254;93756;-52
2023/01/18 04:19:57;;;;;;;35.30;22.40;;;;;;;1.91;92.71;98090.17;107377;1258;81498;-52
2023/01/18 04:22:41;;;;;;;38.00;21.60;;;;;;;1.92;92.72;98094.00;107356;1255;81955;-52
2023/01/18 04:25:18;;;;;;;36.50;21.30;;;;;;;1.96;92.66;98093.59;107352;1254;99340;-55
2023/01/18 04:28:06;;;;;;;39.90;22.90;;;;;;;1.95;92.72;98086.83;107360;1254;88856;-55
2023/01/18 04:30:49;;;;;;;40.50;24.00;;;;;;;1.90;92.67;98093.20;107361;1258;93982;-53
2023/01/18 04:33:28;;;;;;;43.90;25.30;;;;;;;1.92;92.83;98091.64;107362;1254;81315;-53
2023/01/18 04:36:05;;;;;;;43.50;25.20;;;;;;;1.97;92.93;98094.64;107391;1255;82624;-55
2023/01/18 04:38:39;;;;;;;44.10;24.70;;;;;;;2.03;92.89;98098.94;107426;1254;99484;-55
2023/01/18 04:41:19;;;;;;;43.30;24.30;;;;;;;2.04;92.92;98103.55;107476;1256;88791;-55
2023/01/18 04:44:00;;;;;;;42.60;24.40;;;;;;;2.09;93.08;98100.09;107383;1254;93595;-55
2023/01/18 04:46:47;;;;;;;40.60;23.60;;;;;;;2.10;93.09;98099.11;107419;1254;80833;-56
2023/01/18 04:49:33;;;;;;;41.60;23.80;;;;;;;2.07;92.88;98101.02;107378;1254;81505;-55
2023/01/18 04:52:14;;;;;;;45.70;25.90;;;;;;;2.06;92.97;98094.58;107358;1254;100365;-52
2023/01/18 04:54:58;;;;;;;44.20;24.70;;;;;;;2.12;92.95;98095.04;107420;1254;88107;-51
2023/01/18 04:57:44;;;;;;;50.80;27.20;;;;;;;2.13;92.86;98092.07;107332;1254;94670;-51
2023/01/18 05:00:26;;;;;;;50.60;27.10;;;;;;;2.16;92.97;98093.45;107362;1254;81336;-51
2023/01/18 05:03:05;;;;;;;54.00;27.30;;;;;;;2.20;92.99;98095.98;107340;1254;82616;-53
2023/01/18 05:05:50;;;;;;;56.30;28.10;;;;;;;2.22;92.92;98096.56;107349;1254;98910;-54
2023/01/18 05:08:26;;;;;;;;;;;;;;;2.22;93.06;98090.95;107337;1254;88782;-55
2023/01/18 05:11:09;;;;;;;65.60;29.90;;;;;;;2.28;93.04;98090.92;107299;1254;93562;-52
2023/01/18 05:13:47;;;;;;;59.50;30.00;;;;;;;2.32;92.89;98094.84;107342;1254;81517;-52
2023/01/18 05:16:24;;;;;;;56.00;27.40;;;;;;;2.37;93.05;98098.44;107332;1254;81431;-52
2023/01/18 05:19:03;;;;;;;47.20;23.20;;;;;;;2.36;93.13;98097.77;107383;1254;99911;-52
2023/01/18 05:21:40;;;;;;;43.30;23.60;;;;;;;2.37;93.08;98094.02;107389;1254;88361;-53
2023/01/18 05:24:24;;;;;;;45.40;23.10;;;;;;;2.43;93.04;98090.78;107396;1254;95593;-51
2023/01/18 05:27:08;;;;;;;42.40;24.00;;;;;;;2.47;92.96;98087.90;107379;1254;80657;-52
2023/01/18 05:29:50;;;;;;;45.50;23.50;;;;;;;2.47;93.15;98087.02;107412;1254;82769;-56
2023/01/18 05:32:27;;;;;;;44.50;24.00;;;;;;;2.49;92.96;98086.60;107358;1254;96730;-56
2023/01/18 05:35:07;;;;;;;42.60;22.90;;;;;;;2.45;93.02;98089.98;107409;1254;88817;-53
2023/01/18 05:37:55;;;;;;;40.40;22.80;;;;;;;2.47;93.09;98087.56;107016;1254;446279;-53
2023/01/18 05:40:37;;;;;;;44.50;23.50;;;;;;;2.46;93.01;98080.60;107314;1254;80004;-53
2023/01/18 05:43:15;;;;;;;39.10;22.60;;;;;;;2.45;93.17;98079.44;107408;1254;81730;-53
2023/01/18 05:45:56;;;;;;;45.90;23.30;;;;;;;2.40;93.21;98068.41;107351;1254;98741;-53
2023/01/18 05:48:40;;;;;;;42.20;23.20;;;;;;;2.40;93.11;98058.86;107339;1254;88652;-53
2023/01/18 05:51:17;;;;;;;43.80;23.20;;;;;;;2.38;93.28;98052.35;107379;1254;95553;-57
2023/01/18 05:54:00;;;;;;;40.80;22.10;;;;;;;2.40;93.32;98052.06;107383;1254;79498;-56
2023/01/18 05:56:40;;;;;;;44.20;25.40;;;;;;;2.41;93.34;98041.00;107373;1254;82294;-57
2023/01/18 05:59:26;;;;;;;40.00;22.40;;;;;;;2.37;93.31;98034.27;107321;1254;97303;-56
2023/01/18 06:02:05;;;;;;;41.50;22.90;;;;;;;2.33;93.38;98021.61;107388;1254;88927;-56
2023/01/18 06:04:39;;;;;;;40.20;21.60;;;;;;;2.34;93.41;98020.23;107358;1254;94395;-54
2023/01/18 06:07:25;;;;;;;43.80;23.40;;;;;;;2.32;93.59;98012.52;107370;1254;81445;-56
2023/01/18 06:10:09;;;;;;;39.50;21.20;;;;;;;2.31;93.52;98009.64;107415;1254;81841;-52
2023/01/18 06:12:48;;;;;;;43.70;23.60;;;;;;;2.30;93.74;98004.11;107401;1254;99855;-53
2023/01/18 06:15:34;;;;;;;41.40;21.30;;;;;;;2.33;93.47;98000.88;107422;1254;89539;-57
2023/01/18 06:18:11;;;;;;;40.90;20.50;;;;;;;2.32;93.71;97994.67;107441;1254;94651;-56
2023/01/18 06:20:53;;;;;;;40.40;21.10;;;;;;;2.34;93.85;97993.34;107389;1254;81324;-56
2023/01/18 06:23:38;;;;;;;34.80;19.10;;;;;;;2.37;93.69;97989.22;107362;1254;81276;-54
2023/01/18 06:26:22;;;;;;;40.30;19.90;;;;;;;2.41;93.65;97985.55;107327;1255;98409;-53
2023/01/18 06:29:02;;;;;;;46.10;22.10;;;;;;;2.37;93.75;97975.45;107328;1254;88277;-52
2023/01/18 06:31:46;;;;;;;41.10;20.40;;;;;;;2.37;93.80;97971.31;107321;1258;95774;-53
2023/01/18 06:34:29;;;;;;;40.30;19.80;;;;;;;2.36;93.73;97956.14;107320;1254;79683;-53
2023/01/18 06:37:14;;;;;;;32.30;16.40;;;;;;;2.35;93.72;97939.54;107365;1255;82126;-56
2023/01/18 06:39:55;;;;;;;30.40;16.30;;;;;;;2.37;94.00;97927.79;107335;1254;99139;-55
2023/01/18 06:42:38;;;;;;;32.30;16.00;;;;;;;2.34;93.95;97929.94;107356;1258;87989;-54
2023/01/18 06:45:18;;;;;;;43.20;16.70;;;;;;;2.36;93.90;97924.63;107341;1254;92438;-53
2023/01/18 06:48:02;;;;;;;36.50;16.50;;;;;;;2.38;93.90;97935.13;107334;1254;80384;-52
2023/01/18 06:50:47;;;;;;;49.70;18.70;;;;;;;2.38;93.94;97962.95;107351;1254;81518;-53
2023/01/18 06:53:27;;;;;;;53.80;20.10;;;;;;;2.42;93.80;97992.56;107354;1254;97380;-52
2023/01/18 06:56:10;;;;;;;86.20;22.40;;;;;;;2.45;93.62;97995.95;107356;1254;88558;-54
2023/01/18 06:58:50;;;;;;;67.30;19.60;;;;;;;2.45;93.93;97984.42;107397;1254;96095;-52
2023/01/18 07:01:31;;;;;;;74.60;20.10;;;;;;;2.45;93.79;97973.14;107421;1255;79672;-55
2023/01/18 07:04:13;;;;;;;87.30;21.40;;;;;;;2.47;93.96;97965.23;107376;1254;80437;-55
2023/01/18 07:06:49;;;;;;;47.80;15.20;;;;;;;2.49;93.90;97957.89;107363;1254;98581;-56
2023/01/18 07:09:29;;;;;;;71.30;21.60;;;;;;;2.49;93.99;97945.21;107355;1255;87931;-55
2023/01/18 07:12:08;;;;;;;47.50;15.20;;;;;;;2.48;94.06;97933.94;107345;1254;94991;-53
2023/01/18 07:14:49;;;;;;;35.60;14.10;;;;;;;2.49;94.00;97934.03;107318;1254;80273;-53
2023/01/18 07:17:26;;;;;;;38.20;13.30;;;;;;;2.48;94.08;97933.69;107347;1254;80869;-55
2023/01/18 07:20:03;;;;;;;45.30;15.30;;;;;;;2.46;93.95;97939.54;107313;1255;97314;-53
2023/01/18 07:22:43;;;;;;;64.70;14.60;;;;;;;2.47;94.09;97949.02;107318;1255;88317;-53
2023/01/18 07:25:26;;;;;;;27.20;12.70;;;;;;;2.49;94.05;97964.61;107333;1258;93974;-52
2023/01/18 07:28:04;;;;;;;23.90;11.60;;;;;;;2.50;94.19;97971.95;107296;1254;80445;-53
2023/01/18 07:30:46;;;;;;;34.20;13.80;;;;;;;2.49;94.21;97980.22;107362;1254;82747;-54
2023/01/18 07:33:31;;;;;;;23.40;12.20;;;;;;;2.53;94.29;97984.88;107335;1258;99394;-54
2023/01/18 07:36:12;;;;;;;26.70;11.50;;;;;;;2.56;94.21;97989.08;107381;1256;88288;-54
2023/01/18 07:38:53;;;;;;;33.60;13.00;;;;;;;2.55;94.28;97983.34;107389;1258;95584;-54
2023/01/18 07:41:36;;;;;;;69.70;17.10;;;;;;;2.63;94.03;97972.53;107369;1254;81262;-54
2023/01/18 07:44:21;;;;;;;93.50;20.90;;;;;;;2.68;94.02;97969.05;107351;1254;83005;-54
2023/01/18 07:47:03;;;;;;;73.30;18.10;;;;;;;2.72;94.04;97962.13;107479;1255;98859;-52
2023/01/18 07:49:49;;;;;;;97.10;20.70;;;;;;;2.73;94.10;97953.59;107428;1254;88538;-52
2023/01/18 07:52:30;;;;;;;58.30;15.30;;;;;;;2.69;94.07;97959.48;107370;1254;95969;-51
2023/01/18 07:55:11;;;;;;;79.00;19.10;;;;;;;2.70;94.13;97958.59;107341;1254;82034;-52
2023/01/18 07:57:48;;;;;;;59.60;14.50;;;;;;;2.74;93.80;97962.55;107338;1255;82835;-53
2023/01/18 08:00:28;;;;;;;35.60;11.90;;;;;;;2.72;93.74;97965.13;107330;1254;99355;-53
2023/01/18 08:03:11;;;;;;;77.60;17.20;;;;;;;2.66;93.84;97970.30;107353;1255;86869;-53
2023/01/18 08:05:49;;;;;;;39.30;10.70;;;;;;;2.63;93.86;97973.40;107332;1258;95451;-54
2023/01/18 08:08:34;;;;;;;66.20;15.70;;;;;;;2.68;93.87;97958.21;107360;1255;79255;-54
2023/01/18 08:11:10;;;;;;;38.60;11.90;;;;;;;2.70;93.94;97953.47;107390;1256;80693;-55
2023/01/18 08:13:48;;;;;;;25.40;10.40;;;;;;;2.69;93.99;97945.91;107330;1254;97960;-55
2023/01/18 08:16:30;;;;;;;29.50;11.60;;;;;;;2.74;94.06;97935.31;107321;1254;85867;-53
2023/01/18 08:19:12;;;;;;;28.80;11.00;;;;;;;2.73;94.20;97933.87;107285;1255;95400;-53
2023/01/18 08:21:51;;;;;;;43.60;17.30;;;;;;;2.73;94.13;97936.67;107302;1254;80401;-55
2023/01/18 08:24:33;;;;;;;34.20;15.70;;;;;;;2.74;94.00;97944.70;107321;1255;82358;-54
2023/01/18 08:27:15;;;;;;;62.80;14.60;;;;;;;2.79;93.84;97942.10;107344;1258;97612;-54
2023/01/18 08:29:54;;;;;;;92.30;21.60;;;;;;;2.82;93.79;97928.38;107376;1254;88722;-53
2023/01/18 08:32:37;;;;;;;88.30;19.20;;;;;;;2.86;94.01;97920.42;107386;1255;95259;-53
2023/01/18 08:35:14;;;;;;;41.40;13.00;;;;;;;2.89;93.84;97919.95;107353;1258;78634;-55
2023/01/18 08:38:03;;;;;;;95.40;20.40;;;;;;;2.81;94.04;97912.95;107388;1255;81960;-54
2023/01/18 08:40:44;;;;;;;77.30;20.00;;;;;;;2.87;93.94;97899.50;107404;1254;97602;-52
2023/01/18 08:43:29;;;;;;;61.90;16.00;;;;;;;2.94;93.82;97890.56;107420;1254;88320;-52
2023/01/18 08:46:06;;;;;;;36.90;13.70;;;;;;;2.92;93.74;97889.34;107391;1258;93361;-52
2023/01/18 08:48:45;;;;;;;17.90;9.60;;;;;;;2.94;93.76;97890.83;107414;1255;80521;-54
2023/01/18 08:51:29;;;;;;;92.40;18.00;;;;;;;2.98;93.83;97908.23;107422;1256;80346;-55
2023/01/18 08:54:06;;;;;;;58.40;13.80;;;;;;;2.94;93.65;97922.58;107361;1254;97886;-56
2023/01/18 08:56:42;;;;;;;33.50;11.20;;;;;;;2.89;93.77;97920.31;107386;1255;88389;-55
2023/01/18 08:59:18;;;;;;;33.10;10.30;;;;;;;2.90;93.77;97913.45;107321;1256;94671;-54
2023/01/18 09:01:58;;;;;;;18.00;8.60;;;;;;;2.94;93.79;97913.80;107344;1254;79279;-51
2023/01/18 09:04:42;;;;;;;13.70;7.80;;;;;;;2.97;93.60;97915.61;107331;1254;82666;-53
2023/01/18 09:07:16;;;;;;;;;;;;;;;2.97;93.67;97925.02;107314;1254;100128;-54
2023/01/18 09:09:52;;;;;;;42.10;11.60;;;;;;;2.99;93.65;97917.62;107325;1258;89193;-53
2023/01/18 09:12:33;;;;;;;79.40;15.30;;;;;;;3.02;93.69;97923.02;107359;1255;95878;-52
2023/01/18 09:15:17;;;;;;;82.30;14.10;;;;;;;3.04;93.68;97911.36;107390;1254;80736;-53
2023/01/18 09:17:53;;;;;;;79.10;15.80;;;;;;;2.98;93.55;97910.45;107426;1255;83892;-52
2023/01/18 09:20:28;;;;;;;52.60;12.50;;;;;;;2.98;93.64;97909.59;107395;1255;99728;-53
2023/01/18 09:23:08;;;;;;;65.60;12.90;;;;;;;2.96;93.53;97903.38;107390;1254;87896;-53
2023/01/18 09:26:00;;;;;;;66.30;12.60;;;;;;;2.96;93.66;97896.16;107420;1255;94970;-55
2023/01/18 09:28:44;;;;;;;57.40;11.10;;;;;;;2.99;93.62;97887.19;107388;1255;82155;-54
2023/01/18 09:31:23;;;;;;;80.20;14.70;;;;;;;3.01;93.65;97877.92;107319;1255;80493;-55
2023/01/18 09:34:04;;;;;;;32.00;8.20;;;;;;;3.05;93.54;97876.48;107348;1255;100652;-55
2023/01/18 09:36:41;;;;;;;88.50;16.40;;;;;;;3.09;93.56;97867.09;107313;1255;85353;-54
2023/01/18 09:39:18;;;;;;;62.30;13.30;;;;;;;3.10;93.76;97860.41;107338;1258;95612;-54
2023/01/18 09:42:03;;;;;;;75.00;14.50;;;;;;;3.14;93.75;97852.20;107319;1255;81760;-53
2023/01/18 09:44:47;;;;;;;37.90;8.80;;;;;;;3.19;93.72;97836.40;107329;1255;83380;-54
2023/01/18 09:47:29;;;;;;;77.50;12.80;;;;;;;3.19;93.74;97833.48;107327;1258;97967;-54
2023/01/18 09:50:20;;;;;;;36.70;9.10;;;;;;;3.12;93.84;97834.67;107346;1255;88961;-55
2023/01/18 09:53:18;;;;;;;11.40;5.40;;;;;;;3.13;93.65;97841.25;107351;1258;95194;-55
2023/01/18 09:56:04;;;;;;;10.40;5.80;;;;;;;3.06;93.64;97832.54;107378;1254;81979;-54
2023/01/18 09:58:56;;;;;;;10.70;5.60;;;;;;;3.09;93.60;97829.39;107390;1255;82582;-54
2023/01/18 10:01:37;;;;;;;12.90;5.80;;;;;;;3.11;93.66;97834.93;107389;1255;100034;-56
2023/01/18 10:04:31;;;;;;;10.60;5.40;;;;;;;3.07;93.56;97849.61;107427;1254;88228;-56
2023/01/18 10:07:15;;;;;;;10.20;5.30;;;;;;;3.09;93.54;97848.75;107311;1254;94799;-53
2023/01/18 10:09:58;;;;;;;9.30;5.10;;;;;;;3.08;93.61;97853.75;107314;1255;81714;-54
2023/01/18 10:12:44;;;;;;;10.60;5.20;;;;;;;3.07;93.69;97848.83;107306;1254;81785;-53
2023/01/18 10:15:26;;;;;;;7.00;4.70;;;;;;;3.12;93.57;97838.61;107319;1255;99868;-54
2023/01/18 10:18:07;;;;;;;6.80;4.60;;;;;;;3.13;93.57;97823.48;107332;1255;88810;-54
2023/01/18 10:21:00;;;;;;;7.70;4.90;;;;;;;3.19;93.54;97822.49;107335;1255;95412;-54
2023/01/18 10:23:50;;;;;;;6.40;4.20;;;;;;;3.22;93.50;97834.64;107319;1254;79089;-55
2023/01/18 10:26:35;;;;;;;7.40;4.30;;;;;;;3.19;93.60;97843.29;107399;1254;83095;-55
2023/01/18 10:29:24;;;;;;;7.00;4.30;;;;;;;3.14;93.51;97839.72;107381;1254;98337;-54
2023/01/18 10:32:06;;;;;;;6.20;4.50;;;;;;;3.15;93.54;97835.45;107422;1256;87854;-57
2023/01/18 10:34:48;;;;;;;6.60;4.90;;;;;;;3.18;93.65;97838.87;107404;1255;92048;-55
2023/01/18 10:37:37;;;;;;;6.00;4.30;;;;;;;3.20;93.51;97830.69;107350;1254;80076;-54
2023/01/18 10:40:15;;;;;;;6.70;4.60;;;;;;;3.24;93.70;97820.03;107371;1255;80852;-54
2023/01/18 10:42:55;;;;;;;7.40;4.70;;;;;;;3.19;93.68;97811.58;107307;1260;98358;-54
2023/01/18 10:45:38;;;;;;;8.70;5.20;;;;;;;3.18;93.73;97801.23;107311;1256;88063;-55
2023/01/18 10:48:31;;;;;;;8.30;5.70;;;;;;;3.18;93.70;97794.15;107329;1256;92789;-56
2023/01/18 10:51:23;;;;;;;7.20;4.70;;;;;;;3.24;93.62;97797.82;107329;1255;80796;-54
2023/01/18 10:54:20;;;;;;;6.40;4.90;;;;;;;3.25;93.69;97814.87;107310;1254;79995;-53
2023/01/18 10:57:18;;;;;;;6.40;4.50;;;;;;;3.27;93.54;97816.78;107346;1254;97489;-54
2023/01/18 10:59:57;;;;;;;6.30;4.30;;;;;;;3.31;93.47;97807.52;107387;1254;88464;-54
2023/01/18 11:02:38;;;;;;;7.50;4.60;;;;;;;3.34;93.67;97802.25;107375;1255;94046;-55
2023/01/18 11:05:36;;;;;;;8.60;5.30;;;;;;;3.35;93.71;97791.51;107354;1254;80692;-54
2023/01/18 11:08:36;;;;;;;36.20;9.00;;;;;;;3.34;93.56;97786.45;107338;1254;80949;-55
2023/01/18 11:12:32;;;;;;;38.20;8.90;;;;;;;3.32;93.50;97781.89;107379;1254;99293;-53
2023/01/18 11:14:34;;;;;;;139.70;21.80;;;;;;;3.32;93.69;97786.94;107303;1258;88411;-54
2023/01/18 11:17:20;;;;;;;112.90;20.00;;;;;;;3.23;93.63;97788.55;107297;1254;93178;-54
2023/01/18 11:20:15;;;;;;;88.10;14.60;;;;;;;3.26;93.57;97781.69;107344;1255;81151;-53
2023/01/18 11:23:06;;;;;;;61.20;11.50;;;;;;;3.28;93.54;97778.90;107411;1255;81339;-53
2023/01/18 11:25:57;;;;;;;56.90;11.40;;;;;;;3.29;93.51;97778.73;107322;1255;97387;-52
2023/01/18 11:28:43;;;;;;;24.70;6.90;;;;;;;3.33;93.61;97780.34;107351;1256;89228;-52
2023/01/18 11:31:26;;;;;;;15.50;5.40;;;;;;;3.38;93.59;97782.20;107387;1256;93984;-54
2023/01/18 11:34:06;;;;;;;16.00;5.60;;;;;;;3.37;93.65;97780.94;107355;1254;80843;-54
2023/01/18 11:36:48;;;;;;;14.70;4.90;;;;;;;3.37;93.58;97781.09;107419;1256;83019;-55
2023/01/18 11:39:35;;;;;;;10.60;5.20;;;;;;;3.35;93.56;97778.84;107437;1254;99666;-54
2023/01/18 11:42:30;;;;;;;18.80;5.70;;;;;;;3.34;93.44;97777.17;107382;1256;85752;-55
2023/01/18 11:45:30;;;;;;;28.20;13.60;;;;;;;3.34;93.37;97777.05;107416;1254;95517;-55
2023/01/18 11:48:26;;;;;;;6.40;4.70;;;;;;;3.34;93.50;97779.77;107325;1255;79275;-55
2023/01/18 11:51:14;;;;;;;8.60;5.00;;;;;;;3.35;93.40;97773.89;107411;1256;81944;-59
2023/01/18 11:54:00;;;;;;;6.60;4.30;;;;;;;3.39;93.51;97774.91;107361;1258;99982;-57
2023/01/18 11:56:55;;;;;;;5.80;4.50;;;;;;;3.37;93.34;97777.04;107371;1256;86741;-55
2023/01/18 11:59:47;;;;;;;8.30;4.90;;;;;;;3.34;93.49;97779.87;107367;1256;94160;-52
2023/01/18 12:02:58;;;;;;;23.50;6.70;;;;;;;3.35;93.16;97778.73;107324;1255;79928;-55
2023/01/18 12:05:49;;;;;;;42.40;9.00;;;;;;;3.33;93.21;97769.21;107364;1254;83272;-54
2023/01/18 12:08:57;;;;;;;22.10;6.60;;;;;;;3.38;93.17;97767.11;107386;1256;99089;-55
2023/01/18 12:12:19;;;;;;;45.50;9.90;;;;;;;3.35;93.15;97765.88;107347;1255;88823;-57
2023/01/18 12:15:13;;;;;;;70.90;11.50;;;;;;;3.38;93.24;97762.05;107367;1255;94573;-55
2023/01/18 12:18:21;;;;;;;46.60;10.40;;;;;;;3.36;93.02;97763.83;107388;1256;80092;-56
2023/01/18 12:21:10;;;;;;;70.70;13.10;;;;;;;3.42;93.18;97766.73;107381;1258;80024;-54
2023/01/18 12:24:34;;;;;;;41.80;9.10;;;;;;;3.43;92.95;97772.23;107371;1255;99319;-55
2023/01/18 12:27:17;;;;;;;25.70;6.50;;;;;;;3.43;92.98;97781.25;107392;1256;87054;-55
2023/01/18 12:30:30;;;;;;;17.90;5.10;;;;;;;3.40;92.85;97781.56;107349;1258;92639;-57
2023/01/18 12:33:25;;;;;;;16.90;6.30;;;;;;;3.42;92.88;97782.91;107410;1256;80106;-57
2023/01/18 12:36:38;;;;;;;23.70;5.90;;;;;;;3.41;92.78;97782.78;107385;1258;82480;-55
2023/01/18 12:39:53;;;;;;;16.00;4.50;;;;;;;3.40;92.77;97787.34;107334;1254;97586;-55
2023/01/18 12:42:51;;;;;;;6.90;4.60;;;;;;;3.39;92.65;97795.14;107325;1256;88446;-54
2023/01/18 12:45:39;;;;;;;10.30;4.90;;;;;;;3.38;92.66;97793.50;107381;1255;95551;-55
2023/01/18 12:48:30;;;;;;;9.30;4.30;;;;;;;3.32;92.55;97774.84;107338;1258;81123;-55
2023/01/18 12:55:34;;;;;;;4.20;3.60;;;;;;;3.25;92.95;97797.99;107430;1259;97876;-54
2023/01/18 12:58:20;;;;;;;3.90;3.40;;;;;;;3.24;92.95;97806.64;107465;1257;87970;-54
2023/01/18 13:00:58;;;;;;;3.90;2.60;;;;;;;3.29;92.88;97808.86;107474;1256;94962;-54
2023/01/18 13:03:46;;;;;;;4.00;2.70;;;;;;;3.29;92.80;97819.38;107477;1256;80769;-56
2023/01/18 13:06:25;;;;;;;3.80;2.70;;;;;;;3.31;92.85;97822.13;107482;1255;80993;-54
2023/01/18 13:09:12;;;;;;;7.80;4.20;;;;;;;3.31;92.75;97823.19;107472;1254;99419;-54
2023/01/18 13:11:57;;;;;;;7.60;5.10;;;;;;;3.33;92.63;97817.98;107474;1256;86766;-55
2023/01/18 13:14:40;;;;;;;10.10;5.10;;;;;;;3.33;92.75;97820.98;107454;1254;95658;-54
2023/01/18 13:17:22;;;;;;;;;;;;;;;3.36;92.67;97819.69;107476;1259;80553;-55
2023/01/18 13:20:12;;;;;;;25.30;10.90;;;;;;;3.31;92.83;97817.36;107522;1259;80591;-55
2023/01/18 13:23:13;;;;;;;29.30;13.10;;;;;;;3.28;92.65;97826.73;107537;1259;99964;-58